Time;durP1;ratioP1;P1;durP2;ratioP2;P2;SDS_P1;SDS_P2;PMS_P1;PMS_P2;Temp;Humidity;BMP_temperature;BMP_pressure;BME280_temperature;BME280_humidity;BME280_pressure;Samples;Min_cycle;Max_cycle;Signal;HPM_P1;HPM_P2
2020/12/22 00:00:35;;;;;;;6.47;4.12;;;;;;;4.96;46.09;102338.87;1784465;80;21160;-79
2020/12/22 00:03:03;;;;;;;6.65;4.90;;;;;;;4.91;46.16;102337.77;1784308;80;21179;-79
2020/12/22 00:05:31;;;;;;;6.47;4.60;;;;;;;4.91;46.32;102339.09;1784048;80;21140;-79
2020/12/22 00:07:59;;;;;;;7.45;5.40;;;;;;;4.97;46.29;102340.58;1783776;80;21647;-79
2020/12/22 00:10:27;;;;;;;7.70;5.05;;;;;;;4.99;46.27;102336.89;1783655;80;21092;-80
2020/12/22 00:12:56;;;;;;;7.42;4.67;;;;;;;4.99;46.31;102336.03;1783961;80;21602;-80
2020/12/22 00:15:25;;;;;;;11.70;6.55;;;;;;;4.99;46.39;102330.25;1784080;80;21111;-80
2020/12/22 00:17:54;;;;;;;11.68;6.75;;;;;;;5.02;46.40;102339.88;1779926;80;21633;-80
2020/12/22 00:20:22;;;;;;;12.80;6.87;;;;;;;5.00;46.36;102333.80;1784722;80;21365;-80
2020/12/22 00:22:51;;;;;;;13.08;8.00;;;;;;;5.01;46.34;102339.02;1783798;79;21707;-80
2020/12/22 00:25:20;;;;;;;14.73;7.78;;;;;;;5.01;46.25;102332.86;1784383;80;21113;-78
2020/12/22 00:27:50;;;;;;;13.20;7.70;;;;;;;5.00;46.33;102337.78;1784072;80;21451;-78
2020/12/22 00:30:17;;;;;;;12.40;6.25;;;;;;;5.00;46.43;102337.31;1784155;80;21164;-79
2020/12/22 00:32:45;;;;;;;12.58;7.08;;;;;;;5.01;46.34;102339.02;1784347;80;21254;-79
2020/12/22 00:35:14;;;;;;;10.50;6.62;;;;;;;4.97;46.26;102340.58;1783858;80;21191;-79
2020/12/22 00:37:43;;;;;;;10.75;6.70;;;;;;;4.96;46.22;102343.70;1783431;80;21191;-80
2020/12/22 00:40:11;;;;;;;8.60;5.17;;;;;;;4.98;46.24;102339.64;1784142;80;21184;-79
2020/12/22 00:42:41;;;;;;;8.33;5.85;;;;;;;4.99;46.07;102343.53;1783907;80;21160;-79
2020/12/22 00:45:10;;;;;;;8.80;5.47;;;;;;;4.97;46.06;102340.11;1784248;79;21360;-79
2020/12/22 00:47:37;;;;;;;7.62;5.15;;;;;;;4.97;45.96;102333.47;1784050;80;21513;-79
2020/12/22 00:50:05;;;;;;;11.40;5.62;;;;;;;4.97;45.96;102332.61;1784276;80;21211;-80
2020/12/22 00:52:33;;;;;;;8.33;5.95;;;;;;;4.93;46.03;102319.95;1784490;80;21502;-80
2020/12/22 00:55:04;;;;;;;7.60;4.90;;;;;;;4.90;46.07;102320.09;1785818;79;21203;-80
2020/12/22 00:57:32;;;;;;;10.98;6.72;;;;;;;4.90;46.05;102325.41;1733409;80;21417;-79
2020/12/22 01:00:06;;;;;;;10.90;6.53;;;;;;;4.89;46.14;102317.05;1785053;80;21183;-80
2020/12/22 01:02:35;;;;;;;12.07;6.72;;;;;;;4.89;46.27;102314.87;1784223;80;21207;-79
2020/12/22 01:05:03;;;;;;;11.10;6.62;;;;;;;4.91;46.32;102311.69;1784049;79;21179;-79
2020/12/22 01:07:31;;;;;;;11.63;7.33;;;;;;;4.93;46.23;102305.34;1783901;80;21584;-79
2020/12/22 01:09:59;;;;;;;9.98;6.40;;;;;;;4.93;46.28;102304.48;1784100;79;22029;-79
2020/12/22 01:12:26;;;;;;;11.08;7.22;;;;;;;4.93;46.25;102308.00;1784017;80;20932;-79
2020/12/22 01:14:54;;;;;;;10.50;6.83;;;;;;;4.90;46.26;102305.48;1782943;80;21310;-79
2020/12/22 01:17:22;;;;;;;10.63;7.33;;;;;;;4.88;46.30;102320.65;1782700;79;21195;-79
2020/12/22 01:19:50;;;;;;;14.35;7.55;;;;;;;4.88;46.35;102315.34;1782439;80;21199;-79
2020/12/22 01:22:18;;;;;;;9.95;7.28;;;;;;;4.88;46.41;102315.81;1782589;80;21175;-79
2020/12/22 01:24:46;;;;;;;10.80;7.45;;;;;;;4.88;46.45;102317.99;1783421;80;21168;-80
2020/12/22 01:27:14;;;;;;;10.18;6.67;;;;;;;4.88;46.49;102316.66;1784237;80;21184;-79
2020/12/22 01:29:42;;;;;;;9.90;7.08;;;;;;;4.89;46.56;102308.23;1783826;80;21184;-80
2020/12/22 01:32:09;;;;;;;12.33;7.75;;;;;;;4.90;46.57;102316.58;1784307;80;21606;-80
2020/12/22 01:34:37;;;;;;;13.93;8.60;;;;;;;4.89;46.62;102313.06;1784443;79;21866;-80
2020/12/22 01:37:13;;;;;;;13.70;8.08;;;;;;;4.91;46.67;102311.69;1784040;80;21183;-80
2020/12/22 01:39:41;;;;;;;14.13;8.95;;;;;;;4.91;46.71;102308.56;1784198;80;21491;-78
2020/12/22 01:42:12;;;;;;;14.07;8.90;;;;;;;4.92;46.71;102312.92;1784311;80;21148;-78
2020/12/22 01:44:40;;;;;;;12.58;7.80;;;;;;;4.92;46.70;102308.09;1784210;80;21151;-79
2020/12/22 01:47:08;;;;;;;13.70;9.05;;;;;;;4.93;46.68;102308.00;1784088;80;21202;-79
2020/12/22 01:49:36;;;;;;;13.38;9.38;;;;;;;4.97;46.60;102308.71;1784210;80;21183;-80
2020/12/22 01:52:04;;;;;;;13.08;9.28;;;;;;;4.97;46.62;102307.39;1783934;79;21199;-80
2020/12/22 01:54:31;;;;;;;14.35;9.75;;;;;;;4.96;46.69;102308.33;1784381;79;21495;-80
2020/12/22 01:57:01;;;;;;;15.23;9.88;;;;;;;4.96;46.69;102305.67;1784108;80;21198;-80
2020/12/22 01:59:29;;;;;;;13.38;9.08;;;;;;;4.93;46.69;102304.02;1756196;80;21160;-78
2020/12/22 02:01:57;;;;;;;13.68;8.45;;;;;;;4.91;46.67;102311.69;1783894;80;21165;-79
2020/12/22 02:04:24;;;;;;;13.40;9.40;;;;;;;4.86;46.76;102311.03;1783698;80;21097;-78
2020/12/22 02:06:53;;;;;;;12.50;9.00;;;;;;;4.86;46.88;102313.23;1755934;80;21159;-78
2020/12/22 02:09:20;;;;;;;17.17;9.35;;;;;;;4.87;46.96;102305.66;1784095;80;21096;-78
2020/12/22 02:11:48;;;;;;;15.03;9.25;;;;;;;4.89;46.99;102300.27;1784179;80;21368;-78
2020/12/22 02:14:16;;;;;;;20.75;11.63;;;;;;;4.92;47.06;102300.13;1784027;80;21192;-78
2020/12/22 02:16:44;;;;;;;19.75;10.68;;;;;;;4.93;47.14;102298.70;1783291;80;21215;-78
2020/12/22 02:19:14;;;;;;;16.75;11.25;;;;;;;4.96;47.19;102301.69;1781941;80;21598;-78
2020/12/22 02:21:41;;;;;;;17.45;10.65;;;;;;;4.85;47.41;102290.25;1755396;80;21179;-78
2020/12/22 02:24:09;;;;;;;22.25;11.68;;;;;;;4.80;47.62;102290.95;1784016;80;21155;-78
2020/12/22 02:26:37;;;;;;;21.40;12.68;;;;;;;4.79;47.79;102283.94;1784088;80;21040;-78
2020/12/22 02:29:05;;;;;;;22.35;13.95;;;;;;;4.82;47.87;102283.32;1784003;80;21151;-79
2020/12/22 02:31:33;;;;;;;19.52;11.55;;;;;;;4.80;47.86;102283.84;1783749;80;21206;-78
2020/12/22 02:34:01;;;;;;;16.25;10.65;;;;;;;4.80;47.97;102284.31;1784029;80;21564;-79
2020/12/22 02:36:28;;;;;;;18.57;11.12;;;;;;;4.83;47.98;102282.38;1784173;80;21789;-78
2020/12/22 02:38:56;;;;;;;18.00;10.35;;;;;;;4.84;47.85;102295.19;1784158;80;21152;-79
2020/12/22 02:41:24;;;;;;;17.25;10.30;;;;;;;4.83;47.96;102291.67;1784010;80;21155;-78
2020/12/22 02:43:52;;;;;;;18.80;11.45;;;;;;;4.84;47.94;102285.89;1784184;80;21204;-79
2020/12/22 02:46:21;;;;;;;16.20;10.65;;;;;;;4.84;47.97;102276.59;1783993;80;21139;-79
2020/12/22 02:48:49;;;;;;;20.77;12.05;;;;;;;4.88;47.97;102283.95;1783735;80;21369;-78
2020/12/22 02:51:17;;;;;;;19.00;11.60;;;;;;;4.89;47.97;102278.55;1783583;80;21148;-78
2020/12/22 02:53:45;;;;;;;19.45;11.88;;;;;;;4.91;48.00;102282.00;1784031;80;21159;-78
2020/12/22 02:56:13;;;;;;;16.07;9.75;;;;;;;4.93;47.94;102281.45;1784338;79;21657;-79
2020/12/22 02:58:41;;;;;;;20.52;11.60;;;;;;;4.93;47.87;102281.45;1784303;80;21164;-78
2020/12/22 03:01:09;;;;;;;18.35;10.72;;;;;;;4.90;47.89;102273.63;1784039;80;21368;-78
2020/12/22 03:03:36;;;;;;;22.37;12.55;;;;;;;4.91;48.01;102284.66;1783876;79;21195;-79
2020/12/22 03:06:05;;;;;;;21.62;12.07;;;;;;;4.91;48.09;102279.82;1784050;80;21144;-78
2020/12/22 03:08:32;;;;;;;16.57;10.78;;;;;;;4.96;48.11;102275.13;1784146;80;21124;-78
2020/12/22 03:11:01;;;;;;;19.90;12.53;;;;;;;4.96;48.12;102275.98;1784288;80;21147;-79
2020/12/22 03:13:28;;;;;;;21.93;13.20;;;;;;;4.94;48.13;102279.64;1784370;80;21795;-79
2020/12/22 03:15:57;;;;;;;21.55;12.25;;;;;;;4.91;48.21;102282.00;1783924;80;21175;-78
2020/12/22 03:18:25;;;;;;;21.25;12.73;;;;;;;5.36;47.44;102283.25;1783756;79;21196;-78
2020/12/22 03:20:53;;;;;;;20.37;11.85;;;;;;;5.00;48.07;102279.36;1784116;80;21226;-78
2020/12/22 03:23:21;;;;;;;24.02;13.25;;;;;;;4.95;48.26;102278.27;1784182;80;21069;-77
2020/12/22 03:25:49;;;;;;;21.55;13.20;;;;;;;4.95;48.23;102271.63;1783963;80;21437;-78
2020/12/22 03:28:17;;;;;;;23.47;13.58;;;;;;;4.97;48.27;102279.50;1784358;80;21611;-78
2020/12/22 03:30:45;;;;;;;26.93;14.55;;;;;;;4.98;48.37;102273.25;1784281;80;21155;-79
2020/12/22 03:33:13;;;;;;;24.43;13.18;;;;;;;4.99;48.38;102273.63;1784455;80;21645;-80
2020/12/22 03:35:40;;;;;;;23.15;13.25;;;;;;;5.01;48.39;102271.77;1784615;80;21192;-78
2020/12/22 03:38:08;;;;;;;23.10;14.10;;;;;;;5.03;48.35;102271.21;1784414;80;21378;-77
2020/12/22 03:40:36;;;;;;;22.10;12.53;;;;;;;5.03;48.28;102268.08;1784395;80;21060;-80
2020/12/22 03:43:04;;;;;;;28.20;15.38;;;;;;;5.01;48.30;102267.31;1784413;80;21618;-77
2020/12/22 03:45:32;;;;;;;23.98;13.40;;;;;;;4.99;48.30;102267.84;1784305;80;21183;-80
2020/12/22 03:48:00;;;;;;;27.75;15.90;;;;;;;4.99;48.31;102270.50;1783998;79;21171;-77
2020/12/22 03:50:28;;;;;;;24.95;13.78;;;;;;;5.00;48.41;102276.70;1784172;79;21368;-80
2020/12/22 03:53:01;;;;;;;27.90;16.12;;;;;;;5.02;48.54;102271.69;1784087;79;21251;-77
2020/12/22 03:55:29;;;;;;;29.40;16.23;;;;;;;5.06;48.50;102270.59;1784392;80;21081;-78
2020/12/22 03:57:57;;;;;;;27.13;16.77;;;;;;;5.07;48.50;102268.32;1784263;80;21480;-77
2020/12/22 04:00:24;;;;;;;28.83;15.28;;;;;;;5.08;48.56;102280.66;1784469;80;21163;-78
2020/12/22 04:02:54;;;;;;;28.05;15.30;;;;;;;5.09;48.54;102270.92;1784116;79;21179;-78
2020/12/22 04:05:23;;;;;;;24.52;13.72;;;;;;;5.11;48.55;102273.48;1784199;80;21176;-78
2020/12/22 04:07:51;;;;;;;27.62;14.18;;;;;;;5.13;48.57;102275.58;1783971;79;21156;-78
2020/12/22 04:10:18;;;;;;;22.10;13.43;;;;;;;5.14;48.55;102276.00;1784408;80;21136;-78
2020/12/22 04:12:46;;;;;;;25.62;14.05;;;;;;;5.17;48.48;102275.82;1783444;79;21487;-78
2020/12/22 04:15:14;;;;;;;27.32;14.33;;;;;;;5.18;48.49;102270.45;1783855;80;21414;-78
2020/12/22 04:17:41;;;;;;;22.15;13.53;;;;;;;5.19;48.46;102267.32;1783851;80;21661;-78
2020/12/22 04:20:09;;;;;;;20.23;12.82;;;;;;;5.20;48.45;102270.36;1784335;80;21602;-79
2020/12/22 04:22:38;;;;;;;23.73;14.07;;;;;;;5.20;48.45;102262.39;1784271;80;21227;-79
2020/12/22 04:25:06;;;;;;;25.08;14.35;;;;;;;5.20;48.48;102270.36;1784133;80;21195;-80
2020/12/22 04:27:34;;;;;;;22.93;13.90;;;;;;;5.19;48.56;102264.66;1784224;80;21357;-80
2020/12/22 04:30:03;;;;;;;25.35;14.95;;;;;;;5.20;48.57;102267.70;1784052;79;21191;-79
2020/12/22 04:32:31;;;;;;;25.85;15.32;;;;;;;5.21;48.60;102267.61;1796189;79;21138;-79
2020/12/22 04:34:59;;;;;;;28.95;15.95;;;;;;;5.22;48.54;102260.06;1796150;78;21153;-80
2020/12/22 04:37:31;;;;;;;26.82;14.95;;;;;;;5.26;48.50;102261.59;1796875;79;21138;-79
2020/12/22 04:39:59;;;;;;;30.05;16.12;;;;;;;5.27;48.54;102258.49;1797014;79;22033;-79
2020/12/22 04:42:28;;;;;;;28.27;15.98;;;;;;;5.29;48.48;102249.95;1797255;79;21168;-80
2020/12/22 04:44:56;;;;;;;30.08;16.30;;;;;;;5.27;48.51;102254.03;1797216;78;21173;-80
2020/12/22 04:47:25;;;;;;;29.42;16.07;;;;;;;5.30;48.47;102255.66;1797013;79;21628;-79
2020/12/22 04:49:56;;;;;;;29.15;16.17;;;;;;;5.28;48.47;102254.89;1797628;79;21124;-80
2020/12/22 04:52:24;;;;;;;24.65;14.90;;;;;;;5.28;48.45;102262.39;1797451;79;21347;-81
2020/12/22 04:54:52;;;;;;;30.37;15.98;;;;;;;5.27;48.48;102257.16;1796127;79;21180;-79
2020/12/22 04:57:20;;;;;;;29.63;16.40;;;;;;;5.26;48.52;102265.57;1799135;79;21157;-80
2020/12/22 04:59:48;;;;;;;29.63;16.97;;;;;;;5.24;48.61;102260.82;1745558;79;21354;-80
2020/12/22 05:02:16;;;;;;;29.37;16.32;;;;;;;5.25;48.72;102263.86;1814321;79;21171;-80
2020/12/22 05:04:44;;;;;;;28.67;16.73;;;;;;;5.27;48.75;102266.46;1813195;79;21575;-79
2020/12/22 05:07:12;;;;;;;27.60;16.48;;;;;;;5.26;48.68;102263.39;1816047;79;21687;-80
2020/12/22 05:09:41;;;;;;;27.05;16.67;;;;;;;5.26;48.74;102264.72;1815095;79;21168;-80
2020/12/22 05:12:09;;;;;;;28.07;16.62;;;;;;;5.27;48.77;102259.81;1815981;79;21131;-81
2020/12/22 05:14:37;;;;;;;32.90;17.90;;;;;;;5.26;48.78;102256.75;1815884;79;21160;-79
2020/12/22 05:17:05;;;;;;;28.05;16.32;;;;;;;5.27;48.76;102254.03;1816031;79;21432;-80
2020/12/22 05:19:36;;;;;;;30.82;17.92;;;;;;;5.27;48.75;102246.53;1815581;79;21366;-80
2020/12/22 05:22:03;;;;;;;29.65;16.02;;;;;;;5.24;48.80;102253.33;1815537;79;21037;-80
2020/12/22 05:24:32;;;;;;;30.08;16.97;;;;;;;5.24;48.83;102250.67;1817725;77;21172;-80
2020/12/22 05:27:01;;;;;;;29.23;16.93;;;;;;;5.23;48.87;102250.29;1815392;79;21168;-81
2020/12/22 05:29:29;;;;;;;32.90;17.48;;;;;;;5.22;48.95;102245.89;1806325;77;22287;-79
2020/12/22 05:31:57;;;;;;;24.77;15.30;;;;;;;5.23;49.08;102247.63;1796103;79;21176;-79
2020/12/22 05:34:27;;;;;;;34.85;19.12;;;;;;;5.24;49.04;102241.38;1795791;79;21176;-80
2020/12/22 05:36:58;;;;;;;31.52;19.15;;;;;;;5.22;49.05;102243.23;1794801;79;21195;-80
2020/12/22 05:39:26;;;;;;;31.68;19.02;;;;;;;5.21;49.03;102244.17;1784586;79;21159;-82
2020/12/22 05:41:54;;;;;;;36.38;18.30;;;;;;;5.20;48.98;102238.48;1796424;79;22304;-80
2020/12/22 05:44:26;;;;;;;29.40;16.35;;;;;;;5.19;49.08;102246.06;1798076;79;21080;-82
2020/12/22 05:46:56;;;;;;;28.57;16.67;;;;;;;5.22;49.08;102247.22;1794261;79;21179;-82
2020/12/22 05:49:23;;;;;;;36.75;19.90;;;;;;;5.21;49.00;102241.05;1782821;79;21184;-81
2020/12/22 05:51:51;;;;;;;29.35;16.52;;;;;;;5.20;48.99;102236.68;1803924;77;21344;-78
2020/12/22 05:54:19;;;;;;;28.75;16.10;;;;;;;5.20;48.96;102236.68;1780231;77;21440;-80
2020/12/22 05:56:47;;;;;;;31.42;19.82;;;;;;;5.20;48.99;102235.83;1780574;79;21207;-80
2020/12/22 05:59:19;;;;;;;34.13;19.15;;;;;;;5.19;48.96;102237.63;1795694;77;21534;-80
2020/12/22 06:01:47;;;;;;;29.70;17.07;;;;;;;5.18;49.01;102223.96;1799329;77;21234;-80
2020/12/22 06:04:17;;;;;;;34.78;20.95;;;;;;;5.22;49.08;102228.62;1790500;79;21453;-80
2020/12/22 06:06:47;;;;;;;32.28;18.05;;;;;;;5.21;49.08;102217.61;1784507;79;22344;-82
2020/12/22 06:09:16;;;;;;;31.73;18.12;;;;;;;5.21;49.13;102222.45;1783464;77;21188;-80
2020/12/22 06:11:47;;;;;;;31.75;17.27;;;;;;;5.22;49.14;102225.96;1796784;77;21515;-80
2020/12/22 06:14:20;;;;;;;33.18;19.25;;;;;;;5.24;49.18;102221.45;1797804;79;21264;-80
2020/12/22 06:16:48;;;;;;;32.80;19.10;;;;;;;5.22;49.15;102225.52;1796123;77;21767;-82
2020/12/22 06:19:21;;;;;;;37.03;21.10;;;;;;;5.21;49.18;102217.61;1796091;79;21204;-83
2020/12/22 06:21:56;;;;;;;32.38;19.70;;;;;;;5.21;49.29;102226.91;1794815;77;21804;-78
2020/12/22 06:24:24;;;;;;;29.87;17.57;;;;;;;5.22;49.27;102221.98;1786816;78;21793;-79
2020/12/22 06:27:06;;;;;;;38.08;19.62;;;;;;;5.23;49.22;102226.37;1801125;77;21476;-79
2020/12/22 06:29:38;;;;;;;37.73;20.17;;;;;;;5.22;49.27;102232.16;1803472;77;22172;-80
2020/12/22 06:32:23;;;;;;;32.00;17.17;;;;;;;5.24;49.28;102227.61;1795138;79;22230;-83
2020/12/22 06:34:52;;;;;;;36.20;18.50;;;;;;;5.28;49.25;102226.98;1800491;77;21366;-81
2020/12/22 06:37:44;;;;;;;37.03;16.87;;;;;;;5.30;49.17;102223.77;1793440;77;21214;-81
2020/12/22 06:40:15;;;;;;;31.48;19.32;;;;;;;5.31;49.14;102233.01;1790902;77;21619;-79
2020/12/22 06:42:46;;;;;;;41.35;23.12;;;;;;;5.33;49.15;102228.45;1789093;79;21215;-79
2020/12/22 06:45:28;;;;;;;36.20;21.05;;;;;;;5.34;49.04;102230.17;1793931;79;21365;-79
2020/12/22 06:48:03;;;;;;;33.90;18.85;;;;;;;5.37;48.96;102227.83;1763040;79;21135;-79
2020/12/22 06:50:43;;;;;;;37.00;19.62;;;;;;;5.39;48.90;102227.27;1792431;77;21096;-77
2020/12/22 06:53:41;;;;;;;38.20;21.10;;;;;;;5.39;48.83;102227.27;1772909;79;21121;-80
2020/12/22 06:56:09;;;;;;;36.00;18.92;;;;;;;5.39;48.81;102225.94;1800245;79;20996;-81
2020/12/22 06:58:41;;;;;;;34.83;18.27;;;;;;;5.40;48.74;102226.32;1764172;79;21112;-80
2020/12/22 07:01:33;;;;;;;37.33;19.15;;;;;;;5.38;48.79;102224.23;1795044;77;21631;-80
2020/12/22 07:04:21;;;;;;;32.88;18.57;;;;;;;5.40;48.81;102218.82;1797468;79;21089;-80
2020/12/22 07:06:57;;;;;;;37.65;18.75;;;;;;;5.41;48.77;102212.59;1787486;79;21215;-80
2020/12/22 07:09:28;;;;;;;30.75;17.48;;;;;;;5.41;48.73;102210.79;1800246;77;21770;-80
2020/12/22 07:12:12;;;;;;;31.77;15.28;;;;;;;5.42;48.67;102205.86;1795298;77;21364;-80
2020/12/22 07:14:48;;;;;;;37.63;20.37;;;;;;;5.43;48.66;102203.58;1789873;79;37417;-78
2020/12/22 07:17:19;;;;;;;;;;;;;;;5.38;48.68;102203.44;1792127;79;21531;-78
2020/12/22 07:19:50;;;;;;;41.50;21.00;;;;;;;5.37;48.80;102207.05;1797771;77;20295;-80
2020/12/22 07:22:20;;;;;;;34.95;19.87;;;;;;;5.36;48.71;102194.23;1763332;79;21378;-80
2020/12/22 07:24:48;;;;;;;38.02;21.45;;;;;;;5.39;48.72;102199.84;1791796;77;21156;-79
2020/12/22 07:27:16;;;;;;;39.73;22.35;;;;;;;5.40;48.74;102198.89;1799251;79;21529;-80
2020/12/22 07:29:46;;;;;;;44.13;22.82;;;;;;;5.38;48.80;102189.69;1802072;79;21151;-79
2020/12/22 07:32:14;;;;;;;34.80;19.40;;;;;;;5.39;48.81;102184.75;1796197;77;21084;-78
2020/12/22 07:34:42;;;;;;;34.48;19.57;;;;;;;5.41;48.75;102187.34;1793842;77;21096;-79
2020/12/22 07:37:12;;;;;;;32.15;17.60;;;;;;;5.39;48.73;102190.06;1794160;77;21362;-79
2020/12/22 07:39:41;;;;;;;47.45;25.08;;;;;;;5.35;48.82;102188.51;1788672;77;21938;-79
2020/12/22 07:42:17;;;;;;;34.33;20.00;;;;;;;5.30;48.84;102183.91;1777946;78;21117;-79
2020/12/22 07:45:26;;;;;;;33.50;18.25;;;;;;;5.28;48.87;102193.30;1798189;78;21204;-77
2020/12/22 07:47:56;;;;;;;;;;;;;;;5.21;49.08;102197.21;1793237;79;21440;-80
2020/12/22 07:50:27;;;;;;;36.98;20.37;;;;;;;5.17;49.22;102195.66;1801343;77;21088;-80
2020/12/22 07:52:59;;;;;;;53.95;28.07;;;;;;;5.13;49.42;102190.59;1802078;79;21183;-80
2020/12/22 07:55:30;;;;;;;39.33;21.02;;;;;;;5.15;49.48;102187.39;1800293;77;21196;-79
2020/12/22 07:57:58;;;;;;;34.53;20.27;;;;;;;5.17;49.56;102182.84;1784637;77;21189;-79
2020/12/22 08:00:26;;;;;;;40.38;20.95;;;;;;;5.21;49.49;102173.78;1803558;77;21167;-77
2020/12/22 08:02:54;;;;;;;37.55;19.23;;;;;;;5.25;49.49;102175.33;1801143;77;22678;-77
2020/12/22 08:05:22;;;;;;;32.03;18.60;;;;;;;5.27;49.45;102171.67;1795456;77;21239;-78
2020/12/22 08:07:52;;;;;;;44.05;21.95;;;;;;;5.32;49.45;102170.09;1791207;77;21344;-76
2020/12/22 08:10:24;;;;;;;30.12;17.32;;;;;;;5.36;49.37;102174.30;1788764;77;21743;-77
2020/12/22 08:12:56;;;;;;;30.08;17.30;;;;;;;5.38;49.21;102187.02;1794262;77;21425;-78
2020/12/22 08:15:59;;;;;;;30.48;16.70;;;;;;;5.32;49.13;102182.91;1788744;77;21449;-79
2020/12/22 08:18:46;;;;;;;35.30;21.00;;;;;;;5.25;49.36;102187.29;1774284;78;21120;-77
2020/12/22 08:21:16;;;;;;;33.53;18.27;;;;;;;5.24;49.46;102182.92;1798513;77;21089;-78
2020/12/22 08:23:50;;;;;;;37.03;19.55;;;;;;;5.18;49.55;102178.80;1771368;79;21128;-77
2020/12/22 08:26:18;;;;;;;38.92;21.97;;;;;;;5.15;49.78;102179.42;1777195;79;21125;-78
2020/12/22 08:28:52;;;;;;;54.20;28.10;;;;;;;5.17;49.93;102177.06;1809596;77;21200;-79
2020/12/22 08:31:24;;;;;;;40.95;23.15;;;;;;;5.12;50.08;102172.94;1799366;77;21155;-78
2020/12/22 08:33:56;;;;;;;40.80;23.95;;;;;;;5.01;50.26;102165.55;1796207;77;21425;-80
2020/12/22 08:36:28;;;;;;;35.33;20.50;;;;;;;4.98;50.43;102172.34;1793761;79;21472;-78
2020/12/22 08:39:23;;;;;;;40.30;22.65;;;;;;;4.95;50.56;102164.08;1798488;78;21508;-78
2020/12/22 08:41:57;;;;;;;38.05;21.35;;;;;;;4.94;50.74;102159.68;1796151;77;22128;-80
2020/12/22 08:44:26;;;;;;;38.13;22.37;;;;;;;5.03;50.78;102157.88;1800226;77;21608;-78
2020/12/22 08:46:54;;;;;;;39.95;21.45;;;;;;;5.09;50.83;102153.58;1795185;77;21112;-78
2020/12/22 08:52:02;;;;;;;33.23;15.83;;;;;;;5.19;50.59;102142.47;1785620;79;23256;-79
2020/12/22 08:54:30;;;;;;;32.00;18.50;;;;;;;5.05;50.58;102145.38;1799086;78;21097;-80
2020/12/22 08:57:11;;;;;;;37.23;21.17;;;;;;;5.02;50.63;102139.37;1769616;79;21366;-77
2020/12/22 08:59:45;;;;;;;27.58;16.45;;;;;;;5.03;50.68;102141.94;1784510;78;21179;-78
2020/12/22 09:02:31;;;;;;;32.10;18.02;;;;;;;5.09;50.76;102141.63;1782872;79;21108;-79
2020/12/22 09:05:11;;;;;;;35.48;20.02;;;;;;;5.07;50.64;102137.33;1770716;79;21125;-79
2020/12/22 09:07:39;;;;;;;34.83;19.07;;;;;;;5.06;50.66;102128.50;1787234;78;21597;-78
2020/12/22 09:10:09;;;;;;;29.07;18.50;;;;;;;5.16;50.52;102134.17;1786864;78;21222;-77
2020/12/22 09:12:37;;;;;;;22.93;14.87;;;;;;;5.20;50.39;102124.25;1785652;78;21132;-78
2020/12/22 09:15:08;;;;;;;28.35;15.13;;;;;;;5.19;50.37;102125.20;1752440;78;21153;-78
2020/12/22 09:17:36;;;;;;;27.10;16.65;;;;;;;5.25;50.27;102134.16;1775975;78;21105;-79
2020/12/22 09:20:05;;;;;;;33.85;17.77;;;;;;;5.29;50.13;102121.95;1774927;78;21189;-77
2020/12/22 09:22:34;;;;;;;27.27;16.87;;;;;;;5.31;50.09;102119.20;1779172;78;21407;-79
2020/12/22 09:25:07;;;;;;;26.40;17.17;;;;;;;5.29;50.02;102108.66;1764828;79;21168;-79
2020/12/22 09:27:36;;;;;;;27.05;16.60;;;;;;;5.32;49.96;102114.30;1769114;79;21142;-78
2020/12/22 09:30:13;;;;;;;27.93;18.07;;;;;;;5.28;49.96;102107.43;1771063;80;21114;-78
2020/12/22 09:32:47;;;;;;;23.40;14.78;;;;;;;5.23;50.08;102092.22;1748050;79;21125;-76
2020/12/22 09:35:24;;;;;;;21.30;14.50;;;;;;;5.22;50.13;102086.05;1795569;77;21370;-79
2020/12/22 09:37:55;;;;;;;25.35;15.83;;;;;;;5.23;50.15;102082.45;1773563;77;21121;-78
2020/12/22 09:40:25;;;;;;;31.33;17.75;;;;;;;5.25;50.17;102088.52;1771274;79;21142;-79
2020/12/22 09:43:12;;;;;;;28.07;18.63;;;;;;;5.29;50.18;102087.89;1765787;79;21154;-80
2020/12/22 09:46:02;;;;;;;36.30;20.77;;;;;;;5.34;49.97;102084.50;1791235;77;21356;-80
2020/12/22 09:48:33;;;;;;;26.48;15.43;;;;;;;5.29;50.10;102085.23;1792581;77;21336;-79
2020/12/22 09:51:02;;;;;;;28.02;17.10;;;;;;;5.32;50.05;102089.05;1794619;77;21731;-79
2020/12/22 09:53:31;;;;;;;23.62;14.98;;;;;;;5.34;50.02;102086.69;1764710;79;21141;-77
2020/12/22 09:55:59;;;;;;;37.40;21.52;;;;;;;5.32;50.04;102096.55;1765985;79;21117;-79
2020/12/22 09:58:27;;;;;;;43.98;24.57;;;;;;;5.27;50.08;102080.48;1773457;79;21115;-79
2020/12/22 10:00:55;;;;;;;45.67;23.92;;;;;;;5.20;50.26;102082.60;1801748;77;21352;-80
2020/12/22 10:03:23;;;;;;;35.78;20.17;;;;;;;5.20;50.40;102075.96;1795129;77;21496;-76
2020/12/22 10:05:50;;;;;;;31.07;18.67;;;;;;;5.23;50.41;102074.95;1795797;77;21120;-76
2020/12/22 10:08:18;;;;;;;26.10;15.72;;;;;;;5.28;50.40;102073.75;1799149;77;21094;-77
2020/12/22 10:10:46;;;;;;;23.60;14.73;;;;;;;5.29;50.41;102078.59;1793838;77;21130;-77
2020/12/22 10:13:14;;;;;;;25.40;15.08;;;;;;;5.27;50.25;102068.53;1797401;77;22832;-78
2020/12/22 10:15:43;;;;;;;23.40;15.03;;;;;;;5.20;50.30;102067.14;1768063;79;21486;-79
2020/12/22 10:18:13;;;;;;;24.45;14.58;;;;;;;5.18;50.37;102065.02;1769289;79;21145;-79
2020/12/22 10:20:41;;;;;;;19.32;12.00;;;;;;;5.27;50.18;102068.53;1764485;79;21116;-79
2020/12/22 10:23:12;;;;;;;23.47;13.28;;;;;;;5.27;50.21;102064.55;1777115;79;21118;-78
2020/12/22 10:25:40;;;;;;;19.12;13.55;;;;;;;5.30;50.22;102061.70;1772943;79;21339;-77
2020/12/22 10:28:12;;;;;;;22.22;14.03;;;;;;;5.30;50.21;102055.05;1783056;78;21149;-77
2020/12/22 10:30:47;;;;;;;19.42;13.38;;;;;;;5.28;50.17;102045.00;1753942;78;21141;-79
2020/12/22 10:33:16;;;;;;;27.50;15.10;;;;;;;5.26;50.27;102043.73;1772789;79;21408;-78
2020/12/22 10:35:46;;;;;;;32.55;17.05;;;;;;;5.26;50.38;102045.53;1792234;77;21367;-78
2020/12/22 10:38:21;;;;;;;35.03;19.87;;;;;;;5.27;50.27;102041.48;1796174;77;21186;-78
2020/12/22 10:40:52;;;;;;;27.80;16.25;;;;;;;5.26;50.32;102039.75;1765962;79;21697;-78
2020/12/22 10:43:20;;;;;;;30.30;17.30;;;;;;;5.28;50.30;102033.90;1769874;79;21722;-77
2020/12/22 10:45:49;;;;;;;34.00;24.18;;;;;;;5.27;50.21;102033.99;1772638;78;22422;-78
2020/12/22 10:48:17;;;;;;;34.88;23.55;;;;;;;5.19;50.16;102033.08;1767403;79;21407;-80
2020/12/22 10:50:45;;;;;;;42.38;25.85;;;;;;;5.14;50.30;102028.97;1761958;79;21217;-78
2020/12/22 10:53:13;;;;;;;38.08;24.40;;;;;;;5.14;50.40;102031.62;1771319;79;21228;-78
2020/12/22 10:55:43;;;;;;;51.05;28.38;;;;;;;5.17;50.53;102030.11;1775727;78;21197;-77
2020/12/22 10:58:14;;;;;;;43.05;23.85;;;;;;;5.15;50.42;102029.35;1775340;78;21207;-77
2020/12/22 11:00:42;;;;;;;25.68;16.07;;;;;;;5.14;50.48;102030.30;1771156;79;21203;-78
2020/12/22 11:03:16;;;;;;;20.02;12.50;;;;;;;5.17;50.40;102030.11;1791681;78;21395;-79
2020/12/22 11:08:28;;;;;;;24.57;15.15;;;;;;;5.21;50.32;102021.03;1773217;80;21228;-78
2020/12/22 11:11:08;;;;;;;25.52;15.83;;;;;;;5.22;50.35;102014.77;1778227;78;21644;-80
2020/12/22 11:13:36;;;;;;;20.37;13.05;;;;;;;5.20;50.45;102016.19;1746033;78;21102;-79
2020/12/22 11:16:07;;;;;;;25.65;15.00;;;;;;;5.17;50.50;102011.52;1777681;79;21368;-79
2020/12/22 11:18:35;;;;;;;25.27;15.83;;;;;;;5.12;50.59;102009.11;1748563;80;21195;-79
2020/12/22 11:21:11;;;;;;;21.93;13.98;;;;;;;5.12;50.61;102013.57;1767047;79;21122;-79
2020/12/22 11:23:41;;;;;;;23.52;15.80;;;;;;;5.08;50.55;102009.75;1763640;79;20945;-79
2020/12/22 11:26:17;;;;;;;22.93;14.60;;;;;;;5.05;50.56;102005.95;1759465;79;21110;-79
2020/12/22 11:28:45;;;;;;;20.15;11.45;;;;;;;5.04;50.59;102006.02;1768104;79;21381;-81
2020/12/22 11:31:13;;;;;;;21.35;12.20;;;;;;;5.00;50.56;102001.38;1763966;80;21607;-79
2020/12/22 11:33:42;;;;;;;20.30;12.88;;;;;;;4.95;50.66;101999.45;1760836;79;21169;-79
2020/12/22 11:36:15;;;;;;;28.00;16.62;;;;;;;4.94;50.78;102000.36;1763771;79;21164;-78
2020/12/22 11:38:43;;;;;;;22.75;13.38;;;;;;;4.97;50.78;101994.89;1758468;80;21658;-79